Time;durP1;ratioP1;P1;durP2;ratioP2;P2;SDS_P1;SDS_P2;PMS_P1;PMS_P2;Temp;Humidity;BMP_temperature;BMP_pressure;BME280_temperature;BME280_humidity;BME280_pressure;Samples;Min_cycle;Max_cycle;Signal;HPM_P1;HPM_P2
2022/04/11 00:02:05;;;;;;;6.53;3.10;;;;;;;19.49;40.08;101850.28;5014741;28;20072;-54
2022/04/11 00:04:30;;;;;;;6.00;3.10;;;;;;;19.51;40.04;101847.53;5015177;28;20030;-54
2022/04/11 00:07:08;;;;;;;5.05;2.80;;;;;;;19.49;40.00;101839.72;5014046;28;20026;-54
2022/04/11 00:09:33;;;;;;;6.35;2.80;;;;;;;19.49;40.09;101842.38;5015131;28;20049;-55
2022/04/11 00:11:58;;;;;;;6.53;3.20;;;;;;;19.48;40.15;101840.66;5014783;28;20489;-54
2022/04/11 00:14:24;;;;;;;7.47;3.25;;;;;;;19.47;39.96;101838.13;5013882;28;20371;-54
2022/04/11 00:16:49;;;;;;;5.88;2.97;;;;;;;19.46;40.24;101837.28;5014603;28;20026;-54
2022/04/11 00:19:15;;;;;;;6.27;2.80;;;;;;;19.46;40.04;101833.81;5013980;28;20017;-54
2022/04/11 00:21:40;;;;;;;5.55;3.00;;;;;;;19.45;40.01;101832.13;5014767;28;20311;-54
2022/04/11 00:24:06;;;;;;;5.57;2.63;;;;;;;19.44;40.15;101835.69;5014397;28;20022;-55
2022/04/11 00:26:31;;;;;;;4.97;2.67;;;;;;;19.42;40.40;101832.31;5013871;28;20378;-54
2022/04/11 00:28:57;;;;;;;6.97;2.90;;;;;;;19.40;40.36;101825.34;5014406;28;20468;-56
2022/04/11 00:31:22;;;;;;;6.00;2.90;;;;;;;19.41;40.08;101823.56;5014609;28;20334;-55
2022/04/11 00:33:48;;;;;;;6.30;3.40;;;;;;;19.38;40.21;101823.78;5013705;28;20068;-55
2022/04/11 00:36:13;;;;;;;7.35;3.25;;;;;;;19.36;39.96;101825.69;5014493;28;20049;-54
2022/04/11 00:38:39;;;;;;;7.57;2.92;;;;;;;19.34;40.30;101820.53;5014261;28;20471;-55
2022/04/11 00:41:07;;;;;;;8.83;3.40;;;;;;;19.34;40.31;101815.22;5013169;28;20038;-55
2022/04/11 00:43:37;;;;;;;6.53;3.20;;;;;;;19.31;40.08;101804.00;5014181;28;20738;-54
2022/04/11 00:46:06;;;;;;;9.73;3.10;;;;;;;19.31;40.26;101809.28;5013887;28;20045;-55
2022/04/11 00:48:32;;;;;;;7.82;3.22;;;;;;;19.31;40.39;101801.38;5013347;28;20034;-54
2022/04/11 00:51:06;;;;;;;6.95;3.70;;;;;;;19.30;40.05;101797.06;5013699;28;20149;-55
2022/04/11 00:53:32;;;;;;;8.45;3.25;;;;;;;19.29;40.31;101795.34;5014281;28;20022;-54
2022/04/11 00:56:01;;;;;;;9.55;3.45;;;;;;;19.29;40.41;101790.06;5013226;28;20026;-53
2022/04/11 00:58:29;;;;;;;6.85;2.97;;;;;;;19.30;40.56;101795.25;5013089;28;20022;-54
2022/04/11 01:00:57;;;;;;;10.82;3.60;;;;;;;19.33;40.57;101795.03;5013543;28;20030;-54
2022/04/11 01:03:22;;;;;;;8.23;3.35;;;;;;;19.36;40.50;101792.16;5013102;28;20113;-54
2022/04/11 01:05:48;;;;;;;7.68;3.80;;;;;;;19.40;40.53;101788.34;5013730;28;20113;-54
2022/04/11 01:08:13;;;;;;;11.30;3.67;;;;;;;19.43;40.53;101791.72;5014028;28;20469;-54
2022/04/11 01:10:39;;;;;;;7.93;3.70;;;;;;;19.45;40.30;101789.81;5013221;28;20029;-55
2022/04/11 01:13:04;;;;;;;8.63;3.40;;;;;;;19.48;40.30;101784.31;5013350;28;20452;-55
2022/04/11 01:15:29;;;;;;;7.85;3.75;;;;;;;19.50;40.34;101782.38;5013035;28;20030;-53
2022/04/11 01:18:01;;;;;;;8.93;4.00;;;;;;;19.50;40.22;101788.53;5013371;28;20026;-54
2022/04/11 01:20:26;;;;;;;9.13;3.70;;;;;;;19.51;40.16;101784.91;5013575;28;20290;-55
2022/04/11 01:22:51;;;;;;;8.93;3.80;;;;;;;19.51;39.99;101784.91;5012423;28;20034;-56
2022/04/11 01:25:18;;;;;;;8.02;3.70;;;;;;;19.51;40.18;101781.44;5013641;28;20279;-55
2022/04/11 01:27:46;;;;;;;9.10;3.60;;;;;;;19.51;40.04;101781.44;5013581;28;20023;-55
2022/04/11 01:30:15;;;;;;;8.95;3.90;;;;;;;19.50;40.11;101779.75;5012347;28;20385;-53
2022/04/11 01:32:40;;;;;;;9.50;4.05;;;;;;;19.50;39.77;101785.03;5013386;28;20018;-54
2022/04/11 01:35:19;;;;;;;9.57;3.95;;;;;;;19.49;40.08;101786.84;5012843;28;20022;-54
2022/04/11 01:37:44;;;;;;;9.68;3.30;;;;;;;19.48;39.84;101784.31;5012472;28;20513;-55
2022/04/11 01:40:10;;;;;;;9.25;3.60;;;;;;;19.48;39.89;101785.13;5013036;28;20063;-54
2022/04/11 01:42:35;;;;;;;9.82;3.97;;;;;;;19.47;40.00;101783.47;5013351;28;20030;-55
2022/04/11 01:45:01;;;;;;;7.13;3.55;;;;;;;19.47;39.72;101785.25;5012168;28;20466;-54
2022/04/11 01:47:26;;;;;;;9.18;3.63;;;;;;;19.46;39.85;101787.06;5013077;28;20029;-54
2022/04/11 01:49:51;;;;;;;9.18;3.55;;;;;;;19.47;40.03;101787.91;5013093;28;20101;-55
2022/04/11 01:52:17;;;;;;;8.90;3.50;;;;;;;19.48;40.22;101787.78;5012636;28;20030;-55
2022/04/11 01:54:42;;;;;;;10.53;3.90;;;;;;;19.51;40.55;101784.09;5013036;28;20287;-54
2022/04/11 01:57:10;;;;;;;9.48;3.63;;;;;;;19.53;40.70;101782.16;5012810;28;20499;-53
2022/04/11 01:59:35;;;;;;;8.15;3.15;;;;;;;19.56;40.25;101781.94;5012260;28;20022;-54
2022/04/11 02:02:00;;;;;;;10.47;3.93;;;;;;;19.57;40.39;101779.19;5012526;28;20041;-54
2022/04/11 02:04:28;;;;;;;10.87;4.13;;;;;;;19.59;40.36;101776.44;5013178;28;20022;-53
2022/04/11 02:06:53;;;;;;;8.63;3.72;;;;;;;19.58;40.21;101770.31;5011971;28;20311;-53
2022/04/11 02:09:18;;;;;;;8.05;3.70;;;;;;;19.60;40.09;101772.84;5012638;28;20037;-55
2022/04/11 02:11:44;;;;;;;9.57;3.83;;;;;;;19.62;40.05;101775.38;5012344;28;20033;-54
2022/04/11 02:14:09;;;;;;;9.82;3.75;;;;;;;19.61;39.77;101771.88;5012514;28;20061;-55
2022/04/11 02:16:34;;;;;;;9.50;3.80;;;;;;;19.63;39.74;101774.41;5012572;28;20157;-55
2022/04/11 02:19:00;;;;;;;9.30;3.90;;;;;;;19.62;39.47;101770.94;5011998;28;20124;-54
2022/04/11 02:21:28;;;;;;;11.20;3.90;;;;;;;19.61;39.67;101761.28;5012831;28;20428;-54
2022/04/11 02:23:53;;;;;;;8.55;3.72;;;;;;;19.61;39.43;101771.88;5012582;28;20112;-54
2022/04/11 02:26:19;;;;;;;10.17;3.93;;;;;;;19.62;39.40;101772.75;5012194;28;20072;-54
2022/04/11 02:28:44;;;;;;;9.00;4.27;;;;;;;19.59;39.33;101771.16;5012703;28;20279;-54
2022/04/11 02:31:09;;;;;;;9.97;3.70;;;;;;;19.57;39.60;101770.44;5012609;28;20283;-54
2022/04/11 02:33:34;;;;;;;8.63;4.27;;;;;;;19.56;39.42;101769.56;5012255;28;20026;-54
2022/04/11 02:36:00;;;;;;;8.55;3.85;;;;;;;19.54;39.41;101778.56;5012538;28;20362;-54
2022/04/11 02:38:25;;;;;;;6.73;3.87;;;;;;;19.52;39.48;101783.16;5012970;28;20030;-54
2022/04/11 02:40:50;;;;;;;8.60;3.38;;;;;;;19.50;39.39;101771.81;5011720;28;20038;-54
2022/04/11 02:43:15;;;;;;;9.88;4.10;;;;;;;19.48;39.40;101769.28;5012778;28;20354;-55
2022/04/11 02:45:41;;;;;;;9.35;3.47;;;;;;;19.48;39.91;101777.22;5012818;28;20030;-54
2022/04/11 02:48:09;;;;;;;8.85;3.47;;;;;;;19.50;39.92;101775.31;5011848;28;20458;-55
2022/04/11 02:50:34;;;;;;;7.85;3.50;;;;;;;19.52;40.26;101777.84;5012946;28;20029;-54
2022/04/11 02:53:00;;;;;;;7.85;3.53;;;;;;;19.54;40.02;101768.00;5012226;28;20417;-55
2022/04/11 02:55:25;;;;;;;9.45;3.83;;;;;;;19.56;40.27;101772.22;5012010;28;20026;-55
2022/04/11 02:57:50;;;;;;;7.20;3.50;;;;;;;19.56;40.20;101766.91;5012272;28;20040;-53
2022/04/11 03:00:16;;;;;;;9.23;3.70;;;;;;;19.57;39.86;101768.63;5012464;28;20278;-54
2022/04/11 03:02:44;;;;;;;9.18;3.45;;;;;;;19.58;39.88;101765.03;5011987;28;20025;-54
2022/04/11 03:05:12;;;;;;;7.97;3.40;;;;;;;19.57;39.87;101765.97;5012091;28;20474;-54
2022/04/11 03:07:37;;;;;;;9.15;3.85;;;;;;;19.59;39.31;101765.88;5012758;28;20462;-55
2022/04/11 03:10:06;;;;;;;9.00;3.93;;;;;;;19.59;39.23;101763.22;5011743;28;20022;-55
2022/04/11 03:12:32;;;;;;;7.97;3.40;;;;;;;19.58;39.47;101766.81;5012872;28;20278;-55
2022/04/11 03:14:58;;;;;;;8.80;3.63;;;;;;;19.57;39.15;101759.84;5011685;28;20152;-55
2022/04/11 03:17:23;;;;;;;10.03;3.73;;;;;;;19.56;39.13;101752.88;5012509;28;20123;-54
2022/04/11 03:19:48;;;;;;;7.43;3.50;;;;;;;19.55;39.05;101764.38;5012172;28;20376;-54
2022/04/11 03:22:14;;;;;;;8.13;3.40;;;;;;;19.54;39.18;101765.34;5015040;28;20341;-53
2022/04/11 03:24:39;;;;;;;7.43;3.50;;;;;;;19.52;39.20;101762.81;5015801;28;20505;-54
2022/04/11 03:27:05;;;;;;;7.10;3.17;;;;;;;19.50;39.00;101753.31;5015538;28;20113;-55
2022/04/11 03:29:30;;;;;;;8.40;3.28;;;;;;;19.49;39.08;101759.56;5014871;28;20432;-54
2022/04/11 03:31:56;;;;;;;6.93;3.38;;;;;;;19.48;39.18;101765.81;5015531;28;20104;-55
2022/04/11 03:34:21;;;;;;;6.63;3.53;;;;;;;19.46;39.09;101755.34;5015747;28;20049;-54
2022/04/11 03:36:47;;;;;;;8.38;4.03;;;;;;;19.45;39.18;101758.94;5014855;28;20026;-54
2022/04/11 03:39:13;;;;;;;6.68;3.13;;;;;;;19.44;39.09;101756.41;5015239;28;20064;-53
2022/04/11 03:41:38;;;;;;;7.03;3.08;;;;;;;19.43;39.59;101758.19;5015394;28;20022;-53
2022/04/11 03:44:03;;;;;;;6.70;3.28;;;;;;;19.44;39.82;101757.25;5014290;28;20026;-56
2022/04/11 03:46:29;;;;;;;8.63;3.20;;;;;;;19.47;39.82;101761.47;5015597;28;20374;-53
2022/04/11 03:48:54;;;;;;;6.60;3.00;;;;;;;19.47;39.61;101762.31;5015315;28;20109;-53
2022/04/11 03:51:20;;;;;;;6.75;3.40;;;;;;;19.48;39.41;101760.50;5014683;28;20022;-54
2022/04/11 03:53:47;;;;;;;7.13;3.40;;;;;;;19.49;39.31;101763.06;5015463;28;20025;-55
2022/04/11 03:56:14;;;;;;;7.70;3.20;;;;;;;19.49;39.22;101764.84;5015105;28;20033;-55
2022/04/11 03:58:40;;;;;;;6.18;3.00;;;;;;;19.49;39.19;101764.84;5014399;28;20034;-54
2022/04/11 04:01:07;;;;;;;10.07;3.40;;;;;;;19.49;39.00;101757.75;5014921;28;20041;-55
2022/04/11 04:03:33;;;;;;;6.63;3.10;;;;;;;19.49;38.83;101763.06;5015252;28;20244;-54
2022/04/11 04:05:58;;;;;;;7.70;3.33;;;;;;;19.50;38.72;101756.81;5014010;28;20147;-55
2022/04/11 04:08:23;;;;;;;7.55;3.20;;;;;;;19.49;38.94;101762.22;5014936;28;20276;-54
2022/04/11 04:10:49;;;;;;;8.95;3.95;;;;;;;19.47;38.78;101764.09;5014676;28;20026;-55
2022/04/11 04:13:20;;;;;;;6.10;3.22;;;;;;;19.45;38.64;101752.81;5013848;28;20050;-55
2022/04/11 04:15:47;;;;;;;7.55;3.45;;;;;;;19.46;38.63;101754.50;5015005;28;20194;-54
2022/04/11 04:18:15;;;;;;;8.55;3.38;;;;;;;19.45;38.71;101753.63;5014370;28;20109;-55
2022/04/11 04:20:40;;;;;;;6.70;3.03;;;;;;;19.44;38.59;101756.41;5014838;28;20040;-54
2022/04/11 04:23:06;;;;;;;6.68;3.00;;;;;;;19.41;38.64;101757.47;5014443;28;20018;-55
2022/04/11 04:25:35;;;;;;;7.10;3.25;;;;;;;19.40;38.74;101750.50;5014090;28;20034;-55
2022/04/11 04:28:01;;;;;;;6.40;3.00;;;;;;;19.37;39.29;101756.84;5014511;28;20026;-55
2022/04/11 04:30:28;;;;;;;8.02;3.40;;;;;;;19.39;39.06;101754.94;5014629;28;20065;-54
2022/04/11 04:32:57;;;;;;;6.47;3.20;;;;;;;19.40;39.39;101751.31;5013470;28;20466;-55
2022/04/11 04:35:22;;;;;;;5.93;3.00;;;;;;;19.41;39.53;101744.25;5014583;28;20097;-55
2022/04/11 04:37:48;;;;;;;8.23;3.55;;;;;;;19.42;39.46;101745.94;5014649;28;20113;-55
2022/04/11 04:40:13;;;;;;;6.70;3.20;;;;;;;19.44;38.91;101744.03;5013560;28;20113;-54
2022/04/11 04:42:38;;;;;;;6.85;3.38;;;;;;;19.45;38.99;101747.50;5014525;28;20064;-54
2022/04/11 04:45:05;;;;;;;6.68;3.22;;;;;;;19.46;38.90;101741.28;5014277;28;20030;-54
2022/04/11 04:47:31;;;;;;;7.20;3.13;;;;;;;19.45;39.10;101742.22;5013425;28;20026;-54
2022/04/11 04:49:56;;;;;;;7.90;3.20;;;;;;;19.46;38.76;101743.94;5014003;28;20389;-54
2022/04/11 04:52:21;;;;;;;5.57;2.93;;;;;;;19.47;38.61;101742.94;5014155;28;20026;-55
2022/04/11 04:54:46;;;;;;;5.38;2.90;;;;;;;19.45;38.56;101736.94;5013245;28;20401;-54
2022/04/11 04:57:12;;;;;;;6.47;3.23;;;;;;;19.44;38.43;101735.25;5013978;28;20022;-55
2022/04/11 04:59:40;;;;;;;5.78;2.70;;;;;;;19.42;38.65;101738.00;5014161;28;20287;-55
2022/04/11 05:02:08;;;;;;;5.82;2.88;;;;;;;19.41;38.63;101744.25;5012737;28;20470;-53
2022/04/11 05:04:34;;;;;;;7.35;2.90;;;;;;;19.40;38.73;101743.41;5014073;28;20036;-55
2022/04/11 05:06:59;;;;;;;6.20;2.80;;;;;;;19.40;39.06;101732.00;5013537;28;20034;-54
2022/04/11 05:09:28;;;;;;;5.40;2.58;;;;;;;19.41;39.94;101733.69;5013016;28;20022;-56
2022/04/11 05:11:53;;;;;;;5.38;2.53;;;;;;;19.45;40.42;101731.66;5013624;28;20022;-55
2022/04/11 05:14:18;;;;;;;5.60;2.55;;;;;;;19.47;40.57;101732.38;5013595;28;20038;-55
2022/04/11 05:16:43;;;;;;;7.50;2.67;;;;;;;19.49;40.86;101727.84;5013022;28;20041;-55
2022/04/11 05:19:09;;;;;;;5.63;2.47;;;;;;;19.50;40.61;101718.94;5013461;28;20112;-54
2022/04/11 05:21:34;;;;;;;6.25;2.55;;;;;;;19.53;40.84;101729.28;5012740;28;20318;-56
2022/04/11 05:23:59;;;;;;;5.35;2.47;;;;;;;19.55;40.95;101724.72;5013161;28;20022;-54
2022/04/11 05:26:30;;;;;;;5.83;2.67;;;;;;;19.56;40.98;101726.41;5013449;28;20462;-54
2022/04/11 05:28:56;;;;;;;7.75;2.80;;;;;;;19.59;40.94;101723.56;5012583;28;20025;-51
2022/04/11 05:31:21;;;;;;;7.13;2.60;;;;;;;19.61;40.85;101724.28;5013528;28;20052;-54
2022/04/11 05:33:46;;;;;;;6.57;2.40;;;;;;;19.64;40.92;101717.94;5013498;28;20377;-55
2022/04/11 05:36:11;;;;;;;8.10;2.50;;;;;;;19.64;40.95;101721.41;5012209;28;20367;-55
2022/04/11 05:38:37;;;;;;;6.10;2.50;;;;;;;19.67;40.83;101723.00;5013285;28;20636;-54
2022/04/11 05:41:02;;;;;;;5.25;2.53;;;;;;;19.68;40.85;101728.16;5013063;28;20987;-53
2022/04/11 05:43:28;;;;;;;4.95;2.60;;;;;;;19.69;40.62;101727.22;5011923;28;20028;-54
2022/04/11 05:45:53;;;;;;;4.80;2.53;;;;;;;19.71;40.65;101727.94;5012957;28;20028;-55
2022/04/11 05:48:24;;;;;;;4.57;2.22;;;;;;;19.72;40.73;101720.84;5013157;28;20026;-56
2022/04/11 05:50:50;;;;;;;5.60;2.30;;;;;;;19.72;40.61;101723.50;5012143;28;20022;-54
2022/04/11 05:53:15;;;;;;;6.10;2.50;;;;;;;19.72;40.94;101726.13;5013025;28;20482;-54
2022/04/11 05:55:40;;;;;;;4.55;2.40;;;;;;;19.72;41.15;101723.50;5013200;28;20419;-54
2022/04/11 05:58:05;;;;;;;5.15;2.33;;;;;;;19.72;40.98;101731.41;5012078;28;20030;-54
2022/04/11 06:00:31;;;;;;;5.93;2.25;;;;;;;19.73;41.14;101730.47;5013024;28;20477;-54
2022/04/11 06:02:56;;;;;;;5.50;2.35;;;;;;;19.74;40.97;101721.56;5012704;28;20033;-55
2022/04/11 06:05:22;;;;;;;7.43;2.58;;;;;;;19.76;40.96;101719.69;5012257;28;20038;-55
2022/04/11 06:07:47;;;;;;;5.43;2.45;;;;;;;19.79;40.91;101723.91;5012758;28;20026;-55
2022/04/11 06:10:12;;;;;;;6.05;2.30;;;;;;;19.80;40.96;101717.66;5012747;28;20018;-55
2022/04/11 06:12:38;;;;;;;6.25;2.15;;;;;;;19.81;41.08;101724.66;5012293;28;20026;-53
2022/04/11 06:15:05;;;;;;;7.55;2.58;;;;;;;19.83;40.96;101725.38;5012355;28;20046;-54
2022/04/11 06:17:30;;;;;;;7.70;2.45;;;;;;;19.86;41.24;101720.69;5012852;28;20034;-53
2022/04/11 06:19:57;;;;;;;5.43;2.10;;;;;;;19.88;40.92;101725.88;5011905;28;20496;-54
2022/04/11 06:22:23;;;;;;;5.95;2.15;;;;;;;19.91;40.33;101728.28;5012703;28;20477;-56
2022/04/11 06:24:49;;;;;;;6.13;2.80;;;;;;;19.93;39.65;101729.00;5012354;28;20022;-54
2022/04/11 06:27:19;;;;;;;6.38;2.35;;;;;;;19.93;40.42;101727.22;5012939;28;20049;-55
2022/04/11 06:29:44;;;;;;;5.32;2.17;;;;;;;19.90;40.83;101726.59;5012828;28;20101;-55
2022/04/11 06:32:10;;;;;;;5.20;2.13;;;;;;;19.88;40.98;101724.06;5011643;28;20100;-57
2022/04/11 06:34:36;;;;;;;5.93;2.22;;;;;;;19.86;41.27;101727.78;5012679;28;20290;-58
2022/04/11 06:37:05;;;;;;;4.63;2.00;;;;;;;19.87;41.29;101727.69;5012271;28;20096;-56
2022/04/11 06:39:31;;;;;;;4.53;1.95;;;;;;;19.88;41.33;101723.22;5012187;28;20045;-57
2022/04/11 06:41:56;;;;;;;5.25;2.28;;;;;;;19.86;41.80;101728.63;5012514;28;20190;-55
2022/04/11 06:44:22;;;;;;;6.18;2.03;;;;;;;19.83;41.69;101735.94;5012720;28;20033;-55
2022/04/11 06:46:48;;;;;;;5.38;1.90;;;;;;;19.82;41.75;101728.97;5011912;28;20032;-56
2022/04/11 06:49:13;;;;;;;5.35;2.35;;;;;;;19.82;42.08;101723.69;5012473;28;20373;-56
2022/04/11 06:51:39;;;;;;;5.45;2.35;;;;;;;19.82;42.07;101732.47;5012551;28;20037;-54
2022/04/11 06:54:04;;;;;;;6.70;2.37;;;;;;;19.84;42.36;101735.00;5011786;28;20027;-54
2022/04/11 06:56:30;;;;;;;5.40;2.10;;;;;;;19.83;42.36;101734.16;5014956;28;20267;-55
2022/04/11 06:58:56;;;;;;;5.95;2.10;;;;;;;19.84;42.44;101735.00;5016135;28;20025;-54
2022/04/11 07:01:21;;;;;;;5.97;2.10;;;;;;;19.86;42.26;101736.56;5015444;28;20478;-53
2022/04/11 07:03:46;;;;;;;6.07;2.15;;;;;;;19.88;42.47;101742.56;5016219;28;20046;-52
2022/04/11 07:06:14;;;;;;;5.23;2.00;;;;;;;19.90;42.51;101737.16;5015827;28;20116;-53
2022/04/11 07:08:39;;;;;;;5.10;2.00;;;;;;;19.91;42.63;101738.88;5015673;28;20267;-53
2022/04/11 07:11:17;;;;;;;4.40;2.10;;;;;;;19.94;42.83;101739.47;5016044;28;20049;-53
2022/04/11 07:13:42;;;;;;;4.60;2.00;;;;;;;19.97;42.64;101737.56;5015965;28;20060;-57
2022/04/11 07:16:07;;;;;;;7.95;2.03;;;;;;;19.98;42.79;101733.94;5014971;28;20452;-55
2022/04/11 07:18:33;;;;;;;6.97;2.30;;;;;;;20.04;42.96;101726.38;5015995;28;20049;-57
2022/04/11 07:20:58;;;;;;;6.50;1.88;;;;;;;20.18;42.90;101720.06;5015768;28;20635;-58
2022/04/11 07:23:24;;;;;;;6.88;2.33;;;;;;;20.32;43.08;101719.00;5015279;28;20026;-56
2022/04/11 07:25:52;;;;;;;5.93;2.00;;;;;;;20.46;42.89;101713.50;5015471;28;20025;-57
2022/04/11 07:28:17;;;;;;;6.20;2.15;;;;;;;20.60;42.60;101700.97;5015391;28;20272;-57
2022/04/11 07:30:43;;;;;;;6.38;2.20;;;;;;;20.74;42.47;101710.50;5015724;28;20053;-57
2022/04/11 07:33:08;;;;;;;7.20;2.00;;;;;;;20.84;42.43;101708.84;5015300;28;20470;-57
2022/04/11 07:35:34;;;;;;;5.43;1.98;;;;;;;20.93;42.05;101708.09;5015098;28;20093;-56
2022/04/11 07:38:01;;;;;;;6.27;2.23;;;;;;;21.00;42.16;101709.28;5015288;28;20116;-57
2022/04/11 07:40:30;;;;;;;6.88;2.47;;;;;;;21.07;41.56;101706.16;5015526;28;20743;-58
2022/04/11 07:42:56;;;;;;;5.88;2.00;;;;;;;21.10;41.59;101704.09;5014517;28;20091;-57
2022/04/11 07:45:22;;;;;;;6.07;1.95;;;;;;;21.12;41.54;101701.31;5015477;28;20541;-56
2022/04/11 07:47:47;;;;;;;7.03;2.42;;;;;;;21.11;41.61;101704.91;5015391;28;20030;-58
2022/04/11 07:50:13;;;;;;;4.93;1.92;;;;;;;21.12;41.08;101699.50;5014714;28;20044;-58
2022/04/11 07:52:43;;;;;;;5.65;1.80;;;;;;;21.13;41.14;101701.19;5015226;28;20052;-58
2022/04/11 07:55:15;;;;;;;6.25;2.10;;;;;;;21.16;41.35;101694.81;5015142;28;20049;-59
2022/04/11 07:57:40;;;;;;;7.00;2.03;;;;;;;21.18;40.89;101695.53;5014540;28;20022;-59
2022/04/11 08:00:06;;;;;;;5.22;1.80;;;;;;;21.19;40.95;101690.09;5014887;28;20092;-59
2022/04/11 08:02:32;;;;;;;8.35;2.08;;;;;;;21.22;41.48;101688.16;5015007;28;20029;-58
2022/04/11 08:05:00;;;;;;;6.18;2.35;;;;;;;21.20;41.10;101683.84;5014152;28;20018;-59
2022/04/11 08:07:26;;;;;;;5.75;1.85;;;;;;;21.16;41.03;101678.91;5015866;28;20054;-58
2022/04/11 08:09:51;;;;;;;5.85;1.88;;;;;;;21.14;40.26;101683.47;5016458;28;20034;-57
2022/04/11 08:12:20;;;;;;;5.90;2.08;;;;;;;21.13;40.64;101673.84;5015133;28;20474;-58
2022/04/11 08:14:45;;;;;;;7.55;2.03;;;;;;;21.12;40.84;101677.47;5015627;28;20401;-58
2022/04/11 08:17:10;;;;;;;5.57;1.92;;;;;;;21.13;40.96;101671.22;5015545;28;20026;-59
2022/04/11 08:19:35;;;;;;;5.40;2.20;;;;;;;21.12;41.08;101675.66;5014645;28;20033;-58
2022/04/11 08:22:01;;;;;;;6.47;2.00;;;;;;;21.10;41.22;101663.50;5014634;28;20292;-60
2022/04/11 08:24:26;;;;;;;6.13;1.70;;;;;;;21.14;41.33;101664.91;5013927;28;20026;-57
2022/04/11 08:26:51;;;;;;;7.20;2.10;;;;;;;21.15;41.08;101656.84;5014498;28;20050;-58
2022/04/11 08:29:20;;;;;;;5.55;1.90;;;;;;;21.17;41.17;101665.53;5015421;28;20029;-58
2022/04/11 08:31:48;;;;;;;4.40;1.77;;;;;;;21.19;41.20;101657.47;5013969;28;20425;-56
2022/04/11 08:34:13;;;;;;;4.72;1.60;;;;;;;21.16;41.09;101652.41;5014586;28;20030;-58
2022/04/11 08:36:38;;;;;;;6.23;1.73;;;;;;;21.14;40.73;101655.19;5014946;28;20053;-59
2022/04/11 08:39:04;;;;;;;6.03;1.83;;;;;;;21.14;41.38;101649.88;5013551;28;20030;-58
2022/04/11 08:41:33;;;;;;;7.25;1.70;;;;;;;21.13;40.25;101645.53;5014400;28;20030;-57
2022/04/11 08:44:01;;;;;;;6.78;1.88;;;;;;;21.10;40.19;101648.44;5014341;28;20021;-57
2022/04/11 08:46:28;;;;;;;4.88;1.80;;;;;;;21.09;39.61;101653.84;5013825;28;20053;-58
2022/04/11 08:48:54;;;;;;;5.10;1.85;;;;;;;21.08;40.49;101657.47;5014136;28;20021;-58
2022/04/11 08:51:19;;;;;;;5.57;1.50;;;;;;;21.03;40.53;101657.88;5014492;28;20033;-58
2022/04/11 08:53:45;;;;;;;4.90;2.30;;;;;;;21.02;40.72;101657.00;5013493;28;20026;-58
2022/04/11 08:56:10;;;;;;;5.97;2.22;;;;;;;21.01;40.63;101652.69;5013870;28;20108;-59
2022/04/11 08:58:36;;;;;;;4.75;1.77;;;;;;;20.99;40.77;101649.28;5014096;28;20489;-58
2022/04/11 09:01:01;;;;;;;4.50;1.70;;;;;;;20.97;40.86;101656.53;5013221;28;20064;-57
2022/04/11 09:03:27;;;;;;;4.72;1.70;;;;;;;20.96;40.88;101662.78;5014122;28;20037;-58
2022/04/11 09:06:06;;;;;;;5.03;1.60;;;;;;;20.95;40.89;101662.91;5013697;28;20477;-57
2022/04/11 09:08:37;;;;;;;5.88;1.70;;;;;;;20.91;40.77;101658.84;5013076;28;20037;-58
2022/04/11 09:11:03;;;;;;;4.47;1.77;;;;;;;20.90;41.26;101657.16;5013554;28;20030;-58
2022/04/11 09:13:45;;;;;;;3.57;1.57;;;;;;;20.89;41.45;101652.84;5013844;28;20073;-58
2022/04/11 09:16:14;;;;;;;5.03;1.77;;;;;;;20.92;40.97;101649.91;5013681;28;20269;-59
2022/04/11 09:18:50;;;;;;;6.15;1.50;;;;;;;20.91;41.26;101640.28;5013163;28;20021;-57
2022/04/11 09:21:16;;;;;;;5.63;1.73;;;;;;;20.90;41.19;101636.78;5012833;28;20057;-57
2022/04/11 09:23:42;;;;;;;4.78;1.73;;;;;;;20.90;41.41;101635.97;5013563;28;20115;-57
2022/04/11 09:26:21;;;;;;;3.80;1.48;;;;;;;20.89;41.27;101632.47;5013459;28;20423;-57
2022/04/11 09:29:03;;;;;;;5.93;1.88;;;;;;;20.86;41.27;101627.41;5012966;28;20156;-57
2022/04/11 09:31:30;;;;;;;3.60;1.40;;;;;;;20.86;41.47;101621.28;5013746;28;20029;-57
2022/04/11 09:33:55;;;;;;;7.18;1.75;;;;;;;20.84;41.46;101622.25;5013042;28;20105;-57
2022/04/11 09:36:21;;;;;;;5.75;2.03;;;;;;;20.83;41.54;101609.13;5012920;28;20160;-59
2022/04/11 09:38:59;;;;;;;8.27;1.50;;;;;;;20.86;40.75;101613.34;5013715;28;20050;-57
2022/04/11 09:41:29;;;;;;;4.53;2.00;;;;;;;20.83;41.43;101606.47;5013304;28;20080;-57
2022/04/11 09:43:55;;;;;;;4.80;1.60;;;;;;;20.81;41.73;101605.75;5012399;28;20033;-57
2022/04/11 09:46:23;;;;;;;5.00;1.60;;;;;;;20.80;40.76;101618.16;5013208;28;20041;-57
2022/04/11 09:48:51;;;;;;;4.18;1.38;;;;;;;20.77;41.04;101613.09;5012112;28;20392;-57
2022/04/11 09:51:16;;;;;;;5.03;1.60;;;;;;;20.76;41.43;101608.78;5013383;28;20102;-58
2022/04/11 09:53:45;;;;;;;5.97;1.50;;;;;;;20.77;41.99;101604.31;5013344;28;20030;-59
2022/04/11 09:56:10;;;;;;;6.75;1.60;;;;;;;20.80;41.91;101590.81;5013239;28;20609;-61
2022/04/11 09:58:38;;;;;;;4.68;1.70;;;;;;;20.84;42.08;101592.28;5013789;28;20098;-59
2022/04/11 10:01:05;;;;;;;6.90;1.73;;;;;;;20.86;42.19;101602.75;5012625;28;20030;-59
2022/04/11 10:03:30;;;;;;;5.97;1.80;;;;;;;20.87;42.23;101586.72;5012612;28;20022;-60
2022/04/11 10:05:57;;;;;;;5.15;1.67;;;;;;;20.93;42.09;101588.84;5012759;28;20522;-60
2022/04/11 10:08:27;;;;;;;5.43;1.60;;;;;;;20.96;42.13;101590.41;5013224;28;20053;-59
2022/04/11 10:10:54;;;;;;;5.53;1.65;;;;;;;21.00;42.00;101591.88;5012061;28;20032;-59
2022/04/11 10:13:20;;;;;;;6.32;1.60;;;;;;;21.05;41.96;101587.03;5012963;28;20042;-61
2022/04/11 10:15:46;;;;;;;6.05;1.63;;;;;;;21.07;41.89;101590.38;5012991;28;20387;-60
2022/04/11 10:18:18;;;;;;;4.18;1.35;;;;;;;21.10;41.66;101587.47;5012075;28;20026;-59
2022/04/11 10:20:49;;;;;;;7.07;1.80;;;;;;;21.14;41.72;101580.09;5012973;28;20041;-59
2022/04/11 10:23:32;;;;;;;5.80;1.58;;;;;;;21.16;41.81;101573.72;5013567;28;20041;-57
2022/04/11 10:26:00;;;;;;;7.35;1.80;;;;;;;21.19;41.48;101580.59;5012129;28;20045;-56
2022/04/11 10:28:27;;;;;;;5.55;1.40;;;;;;;21.20;41.47;101575.16;5013017;28;20084;-57
2022/04/11 10:31:03;;;;;;;4.13;1.52;;;;;;;21.22;41.81;101564.44;5015787;28;20018;-58
2022/04/11 10:33:41;;;;;;;4.80;1.65;;;;;;;21.22;41.92;101568.88;5016800;28;20022;-57
2022/04/11 10:36:28;;;;;;;5.07;1.40;;;;;;;21.22;41.67;101567.09;5016422;28;20437;-58
2022/04/11 10:39:15;;;;;;;5.22;1.30;;;;;;;21.22;41.95;101567.09;5015857;28;20113;-58
2022/04/11 10:42:08;;;;;;;7.95;2.03;;;;;;;21.20;41.99;101569.00;5016468;28;20433;-57
2022/04/11 10:44:35;;;;;;;5.57;1.25;;;;;;;21.19;42.30;101567.34;5016990;28;20393;-57
2022/04/11 10:47:09;;;;;;;4.95;1.60;;;;;;;21.18;42.64;101561.16;5015355;28;20041;-57
2022/04/11 10:49:50;;;;;;;;;;;;;;;21.19;42.44;101556.72;5016892;28;20030;-58
2022/04/11 10:52:41;;;;;;;5.07;1.58;;;;;;;21.19;42.46;101548.78;5015854;28;19914;-57
2022/04/11 10:55:18;;;;;;;6.43;1.50;;;;;;;21.18;42.23;101542.63;5016158;28;20025;-58
2022/04/11 10:57:47;;;;;;;5.43;1.60;;;;;;;21.19;42.49;101538.19;5017424;28;20029;-60
2022/04/11 11:00:14;;;;;;;6.13;1.58;;;;;;;21.22;42.08;101545.00;5018132;28;20022;-59
2022/04/11 11:02:59;;;;;;;5.80;1.58;;;;;;;21.24;42.63;101530.69;5017887;28;20112;-59
2022/04/11 11:05:39;;;;;;;5.97;1.88;;;;;;;21.23;42.45;101528.97;5017197;28;20101;-57
2022/04/11 11:08:10;;;;;;;6.25;1.60;;;;;;;21.24;42.22;101511.25;5016553;28;20022;-57
2022/04/11 11:10:58;;;;;;;6.00;1.85;;;;;;;21.25;42.50;101510.31;5016757;28;20389;-58
2022/04/11 11:13:36;;;;;;;7.93;2.10;;;;;;;21.27;42.86;101513.66;5016539;28;20060;-58
2022/04/11 11:16:07;;;;;;;7.70;1.83;;;;;;;21.29;42.89;101506.44;5016066;28;20030;-58
2022/04/11 11:18:48;;;;;;;5.60;1.40;;;;;;;21.30;42.43;101514.25;5016059;28;20435;-59
2022/04/11 11:21:28;;;;;;;6.32;1.92;;;;;;;21.28;42.72;101508.22;5015304;28;20108;-59
2022/04/11 11:24:03;;;;;;;6.82;1.67;;;;;;;21.25;43.07;101492.56;5015793;28;20034;-58
2022/04/11 11:26:52;;;;;;;6.90;1.88;;;;;;;21.25;43.17;101489.09;5015896;28;20030;-59